createdAt,value
2022-11-26T00:02:23.082Z,6.80
2022-11-26T00:04:51.107Z,6.80
2022-11-26T00:07:22.393Z,6.80
2022-11-26T00:09:50.572Z,6.80
2022-11-26T00:12:36.018Z,6.80
2022-11-26T00:15:34.576Z,6.80
2022-11-26T00:18:01.447Z,6.80
2022-11-26T00:20:31.831Z,6.80
2022-11-26T00:23:03.279Z,7.30
2022-11-26T00:25:48.520Z,6.80
2022-11-26T00:28:32.932Z,6.80
2022-11-26T00:31:05.362Z,6.70
2022-11-26T00:33:32.685Z,6.70
2022-11-26T00:36:25.242Z,6.30
2022-11-26T00:38:59.000Z,6.70
2022-11-26T00:41:35.541Z,6.70
2022-11-26T00:44:02.509Z,6.70
2022-11-26T00:46:29.385Z,6.60
2022-11-26T00:48:56.503Z,6.60
2022-11-26T00:51:27.870Z,6.60
2022-11-26T00:54:00.112Z,6.50
2022-11-26T00:56:27.841Z,6.40
2022-11-26T00:58:54.829Z,6.40
2022-11-26T01:01:25.525Z,6.30
2022-11-26T01:03:52.956Z,6.30
2022-11-26T01:06:37.384Z,6.30
2022-11-26T01:09:07.273Z,6.20
2022-11-26T01:11:34.313Z,6.20
2022-11-26T01:14:01.327Z,6.20
2022-11-26T01:16:34.630Z,6.10
2022-11-26T01:19:02.525Z,6.10
2022-11-26T01:21:31.441Z,6.10
2022-11-26T01:23:58.293Z,6.10
2022-11-26T01:26:32.377Z,6.00
2022-11-26T01:28:59.333Z,6.00
2022-11-26T01:31:29.271Z,6.00
2022-11-26T01:33:57.160Z,6.00
2022-11-26T01:36:37.147Z,6.00
2022-11-26T01:39:21.672Z,6.00
2022-11-26T01:42:06.870Z,6.00
2022-11-26T01:44:37.266Z,6.00
2022-11-26T01:47:29.429Z,6.00
2022-11-26T01:50:36.452Z,6.00
2022-11-26T01:53:28.457Z,6.00
2022-11-26T01:56:01.859Z,6.00
2022-11-26T01:58:40.072Z,6.00
2022-11-26T02:01:07.881Z,6.00
2022-11-26T02:04:02.723Z,5.90
2022-11-26T02:06:34.331Z,5.90
2022-11-26T02:09:06.723Z,5.90
2022-11-26T02:11:34.350Z,5.80
2022-11-26T02:14:35.799Z,5.80
2022-11-26T02:17:12.851Z,5.90
2022-11-26T02:20:21.410Z,5.80
2022-11-26T02:23:16.639Z,5.90
2022-11-26T02:26:33.425Z,5.80
2022-11-26T02:29:46.789Z,5.90
2022-11-26T02:32:34.205Z,5.90
2022-11-26T02:35:23.148Z,6.00
2022-11-26T02:38:01.194Z,6.00
2022-11-26T02:40:28.325Z,6.10
2022-11-26T02:42:55.209Z,7.90
2022-11-26T02:45:37.091Z,6.10
2022-11-26T02:48:08.965Z,6.20
2022-11-26T02:50:51.421Z,6.20
2022-11-26T02:53:23.275Z,6.20
2022-11-26T02:56:00.243Z,6.30
2022-11-26T02:58:27.429Z,6.30
2022-11-26T03:00:59.195Z,6.30
2022-11-26T03:03:35.067Z,6.30
2022-11-26T03:06:10.275Z,6.30
2022-11-26T03:08:37.854Z,6.20
2022-11-26T03:11:05.590Z,6.20
2022-11-26T03:13:32.928Z,6.20
2022-11-26T03:15:59.780Z,6.20
2022-11-26T03:18:26.654Z,6.10
2022-11-26T03:20:53.469Z,6.30
2022-11-26T03:23:20.603Z,6.10
2022-11-26T03:25:47.688Z,6.00
2022-11-26T03:28:14.567Z,6.00
2022-11-26T03:30:41.349Z,6.00
2022-11-26T03:33:08.220Z,6.00
2022-11-26T03:35:35.049Z,5.90
2022-11-26T03:38:01.924Z,5.80
2022-11-26T03:40:28.723Z,5.90
2022-11-26T03:42:55.593Z,5.80
2022-11-26T03:45:22.382Z,5.80
2022-11-26T03:47:49.560Z,5.80
2022-11-26T03:50:16.425Z,5.80
2022-11-26T03:52:43.446Z,5.80
2022-11-26T03:55:10.602Z,5.80
2022-11-26T03:57:37.537Z,5.70
2022-11-26T04:00:09.128Z,5.70
2022-11-26T04:02:36.852Z,5.70
2022-11-26T04:05:04.555Z,5.70
2022-11-26T04:07:31.528Z,5.70
2022-11-26T04:09:58.326Z,5.70
2022-11-26T04:12:25.268Z,5.70
2022-11-26T04:14:52.080Z,5.70
2022-11-26T04:17:18.997Z,5.70
2022-11-26T04:19:45.774Z,5.70
2022-11-26T04:22:12.878Z,5.70
2022-11-26T04:24:40.188Z,5.70
2022-11-26T04:27:07.343Z,5.70
2022-11-26T04:29:34.212Z,5.70
2022-11-26T04:32:01.078Z,5.70
2022-11-26T04:34:27.923Z,5.70
2022-11-26T04:36:54.889Z,5.70
2022-11-26T04:39:21.732Z,5.70
2022-11-26T04:41:48.610Z,5.70
2022-11-26T04:44:15.447Z,5.70
2022-11-26T04:46:42.295Z,5.60
2022-11-26T04:49:09.181Z,5.60
2022-11-26T04:51:36.069Z,5.60
2022-11-26T04:54:04.232Z,6.50
2022-11-26T04:56:33.172Z,5.60
2022-11-26T04:59:00.168Z,6.00
2022-11-26T05:01:27.179Z,5.60
2022-11-26T05:03:54.009Z,5.60
2022-11-26T05:06:20.829Z,5.60
2022-11-26T05:08:47.617Z,5.50
2022-11-26T05:11:14.523Z,5.60
2022-11-26T05:13:41.410Z,5.60
2022-11-26T05:16:08.677Z,5.60
2022-11-26T05:18:35.550Z,5.60
2022-11-26T05:21:06.419Z,5.60
2022-11-26T05:23:34.003Z,5.90
2022-11-26T05:26:00.798Z,5.70
2022-11-26T05:28:27.773Z,5.70
2022-11-26T05:31:02.460Z,5.70
2022-11-26T05:33:29.656Z,5.70
2022-11-26T05:35:56.841Z,5.70
2022-11-26T05:38:24.058Z,5.80
2022-11-26T05:40:51.063Z,6.30
2022-11-26T05:43:18.549Z,5.70
2022-11-26T05:45:45.402Z,5.80
2022-11-26T05:48:13.057Z,5.70
2022-11-26T05:50:40.036Z,5.70
2022-11-26T05:53:07.138Z,5.70
2022-11-26T05:55:35.037Z,5.70
2022-11-26T05:58:01.852Z,5.70
2022-11-26T06:00:28.639Z,5.70
2022-11-26T06:02:55.577Z,5.70
2022-11-26T06:05:22.549Z,7.60
2022-11-26T06:07:49.944Z,5.60
2022-11-26T06:10:17.022Z,5.60
2022-11-26T06:12:43.997Z,5.60
2022-11-26T06:15:11.167Z,5.60
2022-11-26T06:17:38.049Z,5.60
2022-11-26T06:20:06.406Z,5.60
2022-11-26T06:22:41.935Z,5.50
2022-11-26T06:25:13.681Z,5.60
2022-11-26T06:27:42.105Z,5.50
2022-11-26T06:30:11.390Z,5.50
2022-11-26T06:32:38.443Z,5.50
2022-11-26T06:35:06.206Z,5.50
2022-11-26T06:37:33.614Z,5.50
2022-11-26T06:40:00.835Z,5.40
2022-11-26T06:42:29.573Z,5.40
2022-11-26T06:44:59.840Z,5.40
2022-11-26T06:47:27.811Z,5.40
2022-11-26T06:49:55.474Z,5.40
2022-11-26T06:52:22.414Z,7.40
2022-11-26T06:54:50.555Z,5.40
2022-11-26T06:57:17.730Z,5.50
2022-11-26T06:59:44.517Z,5.30
2022-11-26T07:02:11.865Z,5.30
2022-11-26T07:04:38.977Z,5.30
2022-11-26T07:07:06.145Z,5.30
2022-11-26T07:09:32.991Z,5.30
2022-11-26T07:12:00.003Z,5.30
2022-11-26T07:14:27.096Z,5.30
2022-11-26T07:16:53.981Z,5.30
2022-11-26T07:19:20.821Z,5.30
2022-11-26T07:21:47.760Z,5.20
2022-11-26T07:24:15.523Z,5.30
2022-11-26T07:26:42.751Z,5.30
2022-11-26T07:29:09.595Z,5.30
2022-11-26T07:31:36.546Z,5.30
2022-11-26T07:34:03.963Z,5.30
2022-11-26T07:36:31.910Z,5.30
2022-11-26T07:39:01.978Z,6.60
2022-11-26T07:41:30.501Z,5.30
2022-11-26T07:43:57.382Z,5.30
2022-11-26T07:46:26.616Z,5.40
2022-11-26T07:48:56.191Z,6.50
2022-11-26T07:51:28.226Z,5.40
2022-11-26T07:53:57.644Z,5.50
2022-11-26T07:56:24.902Z,5.50
2022-11-26T07:58:52.006Z,5.60
2022-11-26T08:01:27.071Z,6.70
2022-11-26T08:03:54.172Z,5.70
2022-11-26T08:06:27.973Z,5.80
2022-11-26T08:08:54.862Z,5.80
2022-11-26T08:11:25.435Z,5.90
2022-11-26T08:14:09.283Z,4.90
2022-11-26T08:16:36.716Z,6.30
2022-11-26T08:19:10.660Z,6.10
2022-11-26T08:21:39.679Z,6.30
2022-11-26T08:24:16.625Z,6.40
2022-11-26T08:26:44.974Z,6.60
2022-11-26T08:29:13.391Z,6.60
2022-11-26T08:31:46.080Z,6.70
2022-11-26T08:34:15.747Z,6.80
2022-11-26T08:36:43.270Z,6.90
2022-11-26T08:39:17.797Z,7.00
2022-11-26T08:41:51.686Z,7.10
2022-11-26T08:44:19.529Z,5.80
2022-11-26T08:46:46.365Z,7.30
2022-11-26T08:49:15.010Z,7.30
2022-11-26T08:51:43.317Z,7.40
2022-11-26T08:54:10.998Z,7.50
2022-11-26T08:56:37.938Z,7.60
2022-11-26T08:59:05.483Z,7.60
2022-11-26T09:01:33.977Z,7.70
2022-11-26T09:04:03.017Z,10.40
2022-11-26T09:06:33.083Z,7.90
2022-11-26T09:09:14.264Z,9.90
2022-11-26T09:11:46.112Z,8.10
2022-11-26T09:14:14.643Z,8.20
2022-11-26T09:16:41.609Z,8.20
2022-11-26T09:19:10.997Z,8.30
2022-11-26T09:21:38.025Z,8.40
2022-11-26T09:24:07.065Z,10.70
2022-11-26T09:26:34.265Z,8.60
2022-11-26T09:29:02.057Z,8.70
2022-11-26T09:31:29.453Z,8.70
2022-11-26T09:33:58.943Z,8.80
2022-11-26T09:36:26.840Z,8.90
2022-11-26T09:38:56.176Z,8.90
2022-11-26T09:41:31.449Z,9.00
2022-11-26T09:44:22.892Z,9.00
2022-11-26T09:47:22.315Z,9.20
2022-11-26T09:50:06.401Z,9.20
2022-11-26T09:52:52.217Z,9.30
2022-11-26T09:55:26.397Z,9.40
2022-11-26T09:58:27.071Z,9.50
2022-11-26T10:00:58.512Z,9.60
2022-11-26T10:03:30.035Z,9.70
2022-11-26T10:06:20.843Z,9.80
2022-11-26T10:09:32.540Z,9.90
2022-11-26T10:12:34.097Z,10.00
2022-11-26T10:15:37.143Z,10.00
2022-11-26T10:18:46.185Z,10.40
2022-11-26T10:21:37.763Z,10.30
2022-11-26T10:24:26.993Z,10.20
2022-11-26T10:26:55.246Z,10.20
2022-11-26T10:29:25.379Z,10.20
2022-11-26T10:32:10.280Z,10.30
2022-11-26T10:34:54.116Z,10.40
2022-11-26T10:37:24.104Z,10.50
2022-11-26T10:40:28.386Z,11.20
2022-11-26T10:43:09.978Z,10.80
2022-11-26T10:45:41.386Z,10.90
2022-11-26T10:48:32.093Z,12.20
2022-11-26T10:51:00.882Z,11.20
2022-11-26T10:53:49.867Z,11.30
2022-11-26T10:56:22.158Z,13.00
2022-11-26T10:58:52.715Z,11.50
2022-11-26T11:01:20.593Z,11.60
2022-11-26T11:04:08.273Z,11.60
2022-11-26T11:06:42.253Z,12.10
2022-11-26T11:09:28.109Z,11.90
2022-11-26T11:12:11.456Z,11.90
2022-11-26T11:14:43.006Z,12.10
2022-11-26T11:17:37.752Z,12.20
2022-11-26T11:20:16.635Z,12.30
2022-11-26T11:22:47.745Z,12.60
2022-11-26T11:25:31.607Z,12.40
2022-11-26T11:28:21.595Z,12.60
2022-11-26T11:31:04.558Z,13.20
2022-11-26T11:33:32.389Z,12.80
2022-11-26T11:36:28.361Z,14.70
2022-11-26T11:39:01.848Z,12.90
2022-11-26T11:41:55.416Z,13.10
2022-11-26T11:44:36.648Z,14.60
2022-11-26T11:47:44.046Z,13.30
2022-11-26T11:50:42.516Z,13.30
2022-11-26T11:53:34.455Z,13.40
2022-11-26T11:56:32.009Z,13.40
2022-11-26T11:59:24.208Z,13.50
2022-11-26T12:02:32.137Z,13.50
2022-11-26T12:05:39.402Z,13.40
2022-11-26T12:08:38.045Z,13.40
2022-11-26T12:11:20.765Z,13.40
2022-11-26T12:13:59.566Z,13.30
2022-11-26T12:16:35.422Z,13.20
2022-11-26T12:19:22.601Z,13.20
2022-11-26T12:22:16.891Z,13.10
2022-11-26T12:25:37.141Z,13.00
2022-11-26T12:28:22.750Z,13.00
2022-11-26T12:30:57.833Z,12.90
2022-11-26T12:33:45.912Z,12.90
2022-11-26T12:36:41.548Z,12.80
2022-11-26T12:39:34.992Z,12.90
2022-11-26T12:42:09.515Z,13.70
2022-11-26T12:44:42.019Z,12.90
2022-11-26T12:47:29.974Z,12.90
2022-11-26T12:50:29.428Z,12.90
2022-11-26T12:53:17.124Z,13.00
2022-11-26T12:56:04.515Z,13.00
2022-11-26T12:59:05.908Z,13.00
2022-11-26T13:01:33.744Z,13.00
2022-11-26T13:04:35.702Z,13.10
2022-11-26T13:07:09.543Z,14.50
2022-11-26T13:10:24.820Z,13.10
2022-11-26T13:13:38.326Z,13.20
2022-11-26T13:16:29.178Z,13.20
2022-11-26T13:19:06.902Z,13.20
2022-11-26T13:22:04.172Z,13.30
2022-11-26T13:24:42.967Z,13.30
2022-11-26T13:27:29.065Z,13.40
2022-11-26T13:30:14.230Z,13.50
2022-11-26T13:33:08.081Z,13.60
2022-11-26T13:35:53.368Z,13.70
2022-11-26T13:39:00.519Z,13.80
2022-11-26T13:41:46.200Z,13.90
2022-11-26T13:44:51.239Z,14.00
2022-11-26T13:47:48.898Z,14.00
2022-11-26T13:50:26.406Z,14.00
2022-11-26T13:53:25.043Z,14.00
2022-11-26T13:56:04.023Z,14.00
2022-11-26T13:58:41.773Z,14.00
2022-11-26T14:01:30.822Z,13.80
2022-11-26T14:03:57.937Z,13.80
2022-11-26T14:06:25.472Z,13.70
2022-11-26T14:08:56.264Z,13.60
2022-11-26T14:11:41.294Z,14.60
2022-11-26T14:14:26.337Z,13.50
2022-11-26T14:17:02.259Z,13.40
2022-11-26T14:19:41.276Z,13.30
2022-11-26T14:22:22.083Z,13.30
2022-11-26T14:24:49.403Z,13.30
2022-11-26T14:27:21.965Z,13.30
2022-11-26T14:30:15.258Z,13.30
2022-11-26T14:32:55.477Z,13.90
2022-11-26T14:35:39.034Z,15.10
2022-11-26T14:38:26.731Z,13.20
2022-11-26T14:40:59.686Z,13.20
2022-11-26T14:43:27.951Z,13.20
2022-11-26T14:46:05.474Z,14.90
2022-11-26T14:48:35.715Z,13.10
2022-11-26T14:51:09.235Z,13.10
2022-11-26T14:53:43.447Z,14.20
2022-11-26T14:56:11.057Z,12.90
2022-11-26T14:58:51.645Z,12.90
2022-11-26T15:01:22.059Z,12.80
2022-11-26T15:04:01.728Z,14.00
2022-11-26T15:06:40.529Z,12.70
2022-11-26T15:09:24.270Z,12.60
2022-11-26T15:12:03.002Z,14.00
2022-11-26T15:14:58.899Z,12.50
2022-11-26T15:17:30.435Z,12.40
2022-11-26T15:20:02.814Z,12.30
2022-11-26T15:22:38.926Z,12.20
2022-11-26T15:25:32.070Z,12.10
2022-11-26T15:28:21.735Z,12.00
2022-11-26T15:31:01.749Z,11.90
2022-11-26T15:33:32.791Z,11.90
2022-11-26T15:36:00.239Z,11.70
2022-11-26T15:38:58.089Z,11.70
2022-11-26T15:41:26.294Z,11.60
2022-11-26T15:43:58.909Z,11.50
2022-11-26T15:46:35.080Z,11.40
2022-11-26T15:49:08.045Z,12.00
2022-11-26T15:51:51.405Z,11.20
2022-11-26T15:54:38.400Z,11.10
2022-11-26T15:57:23.961Z,11.00
2022-11-26T16:00:00.415Z,10.90
2022-11-26T16:02:28.753Z,10.80
2022-11-26T16:04:59.161Z,10.70
2022-11-26T16:07:30.739Z,10.60
2022-11-26T16:10:35.427Z,10.80
2022-11-26T16:13:20.328Z,12.00
2022-11-26T16:16:17.419Z,10.40
2022-11-26T16:18:54.666Z,10.40
2022-11-26T16:21:27.669Z,10.30
2022-11-26T16:24:05.654Z,10.30
2022-11-26T16:26:57.764Z,10.20
2022-11-26T16:29:26.204Z,10.20
2022-11-26T16:31:53.015Z,10.80
2022-11-26T16:34:20.032Z,11.40
2022-11-26T16:36:48.451Z,10.10
2022-11-26T16:39:17.579Z,10.10
2022-11-26T16:41:44.398Z,10.00
2022-11-26T16:44:11.183Z,10.00
2022-11-26T16:46:38.666Z,10.00
2022-11-26T16:49:05.576Z,10.00
2022-11-26T16:51:33.419Z,9.90
2022-11-26T16:54:00.192Z,9.90
2022-11-26T16:56:38.290Z,9.90
2022-11-26T16:59:16.495Z,11.10
2022-11-26T17:01:43.646Z,9.90
2022-11-26T17:04:13.368Z,9.90
2022-11-26T17:06:41.854Z,10.00
2022-11-26T17:09:19.152Z,11.30
2022-11-26T17:11:46.755Z,9.80
2022-11-26T17:14:13.648Z,10.20
2022-11-26T17:16:41.066Z,9.80
2022-11-26T17:19:13.784Z,9.80
2022-11-26T17:21:40.738Z,9.80
2022-11-26T17:24:08.140Z,9.80
2022-11-26T17:26:35.328Z,9.80
2022-11-26T17:29:02.265Z,9.70
2022-11-26T17:31:29.992Z,9.80
2022-11-26T17:33:57.048Z,11.00
2022-11-26T17:36:24.366Z,9.70
2022-11-26T17:38:51.810Z,9.70
2022-11-26T17:41:19.515Z,9.70
2022-11-26T17:43:46.632Z,9.90
2022-11-26T17:46:21.752Z,11.70
2022-11-26T17:48:54.296Z,11.50
2022-11-26T17:51:23.846Z,11.90
2022-11-26T17:53:50.741Z,11.40
2022-11-26T17:56:24.399Z,10.60
2022-11-26T17:58:51.334Z,9.60
2022-11-26T18:01:18.919Z,9.60
2022-11-26T18:03:47.043Z,9.60
2022-11-26T18:06:21.583Z,9.60
2022-11-26T18:08:48.510Z,9.60
2022-11-26T18:11:16.525Z,9.60
2022-11-26T18:13:44.078Z,9.60
2022-11-26T18:16:10.955Z,9.60
2022-11-26T18:18:37.893Z,9.60
2022-11-26T18:21:05.460Z,11.50
2022-11-26T18:23:32.705Z,9.50
2022-11-26T18:25:59.508Z,9.50
2022-11-26T18:28:26.447Z,9.50
2022-11-26T18:30:58.440Z,10.70
2022-11-26T18:33:25.495Z,9.90
2022-11-26T18:35:52.292Z,9.50
2022-11-26T18:38:19.949Z,9.50
2022-11-26T18:40:46.765Z,11.00
2022-11-26T18:43:13.636Z,10.70
2022-11-26T18:45:42.594Z,9.50
2022-11-26T18:48:11.007Z,10.50
2022-11-26T18:50:38.393Z,9.40
2022-11-26T18:53:05.401Z,9.30
2022-11-26T18:55:32.391Z,11.90
2022-11-26T18:58:01.846Z,9.30
2022-11-26T19:00:31.193Z,9.20
2022-11-26T19:02:58.081Z,9.30
2022-11-26T19:05:25.001Z,9.20
2022-11-26T19:07:52.789Z,9.20
2022-11-26T19:10:19.838Z,9.80
2022-11-26T19:12:48.549Z,9.10
2022-11-26T19:15:15.462Z,11.80
2022-11-26T19:17:42.540Z,9.10
2022-11-26T19:20:09.664Z,9.10
2022-11-26T19:22:38.023Z,9.10
2022-11-26T19:25:05.999Z,10.60
2022-11-26T19:27:34.197Z,9.00
2022-11-26T19:30:01.970Z,9.00
2022-11-26T19:32:29.014Z,10.90
2022-11-26T19:34:56.107Z,9.00
2022-11-26T19:37:24.332Z,9.00
2022-11-26T19:39:51.266Z,11.20
2022-11-26T19:42:18.309Z,8.90
2022-11-26T19:44:45.243Z,8.90
2022-11-26T19:47:12.103Z,8.90
2022-11-26T19:49:39.279Z,10.50
2022-11-26T19:52:06.503Z,8.80
2022-11-26T19:54:33.390Z,8.80
2022-11-26T19:57:00.841Z,8.70
2022-11-26T19:59:29.236Z,9.60
2022-11-26T20:01:56.383Z,8.80
2022-11-26T20:04:23.765Z,8.80
2022-11-26T20:06:50.750Z,8.70
2022-11-26T20:09:17.639Z,8.70
2022-11-26T20:11:45.835Z,9.80
2022-11-26T20:14:14.811Z,8.80
2022-11-26T20:16:44.413Z,8.80
2022-11-26T20:19:12.570Z,9.60
2022-11-26T20:21:39.895Z,8.80
2022-11-26T20:24:15.147Z,8.80
2022-11-26T20:26:45.220Z,8.90
2022-11-26T20:29:14.695Z,8.90
2022-11-26T20:31:47.200Z,8.90
2022-11-26T20:34:19.582Z,8.90
2022-11-26T20:36:49.290Z,8.90
2022-11-26T20:39:22.982Z,8.90
2022-11-26T20:41:51.290Z,9.00
2022-11-26T20:44:18.182Z,9.00
2022-11-26T20:46:45.113Z,9.00
2022-11-26T20:49:12.155Z,9.00
2022-11-26T20:51:39.410Z,9.00
2022-11-26T20:54:06.823Z,11.20
2022-11-26T20:56:34.391Z,10.30
2022-11-26T20:59:01.864Z,9.00
2022-11-26T21:01:29.984Z,9.00
2022-11-26T21:03:57.127Z,9.00
2022-11-26T21:06:31.409Z,9.00
2022-11-26T21:09:05.444Z,9.00
2022-11-26T21:11:32.430Z,10.80
2022-11-26T21:14:01.337Z,9.00
2022-11-26T21:16:30.284Z,10.90
2022-11-26T21:18:58.715Z,9.00
2022-11-26T21:21:27.543Z,9.80
2022-11-26T21:23:55.230Z,9.70
2022-11-26T21:26:25.691Z,9.00
2022-11-26T21:28:58.133Z,8.90
2022-11-26T21:31:27.395Z,8.90
2022-11-26T21:34:06.619Z,8.90
2022-11-26T21:36:35.820Z,8.80
2022-11-26T21:39:03.779Z,8.80
2022-11-26T21:41:33.546Z,8.80
2022-11-26T21:44:03.517Z,8.70
2022-11-26T21:46:37.558Z,8.70
2022-11-26T21:49:07.923Z,8.70
2022-11-26T21:51:35.134Z,8.60
2022-11-26T21:54:02.131Z,8.60
2022-11-26T21:56:31.752Z,8.50
2022-11-26T21:59:00.627Z,8.50
2022-11-26T22:01:30.410Z,8.40
2022-11-26T22:04:02.096Z,8.40
2022-11-26T22:06:30.210Z,10.20
2022-11-26T22:08:57.396Z,8.30
2022-11-26T22:11:28.206Z,8.30
2022-11-26T22:13:55.739Z,8.30
2022-11-26T22:16:25.100Z,8.30
2022-11-26T22:18:55.984Z,8.30
2022-11-26T22:21:35.577Z,8.20
2022-11-26T22:24:04.536Z,8.20
2022-11-26T22:26:32.812Z,8.20
2022-11-26T22:28:59.974Z,8.80
2022-11-26T22:31:30.995Z,8.30
2022-11-26T22:34:02.562Z,8.30
2022-11-26T22:36:29.546Z,8.30
2022-11-26T22:38:57.037Z,9.80
2022-11-26T22:41:25.489Z,8.30
2022-11-26T22:43:52.430Z,8.40
2022-11-26T22:46:23.362Z,9.90
2022-11-26T22:48:54.018Z,8.40
2022-11-26T22:51:22.201Z,8.40
2022-11-26T22:53:54.985Z,8.30
2022-11-26T22:56:22.874Z,8.40
2022-11-26T22:58:50.213Z,8.40
2022-11-26T23:01:32.722Z,8.60
2022-11-26T23:04:03.074Z,8.40
2022-11-26T23:06:33.566Z,8.40
2022-11-26T23:09:03.185Z,8.40
2022-11-26T23:11:38.954Z,8.40
2022-11-26T23:14:07.615Z,8.40
2022-11-26T23:16:36.435Z,8.40
2022-11-26T23:19:04.376Z,8.40
2022-11-26T23:21:39.727Z,8.40
2022-11-26T23:24:07.552Z,8.40
2022-11-26T23:26:36.555Z,8.30
2022-11-26T23:29:05.661Z,9.60
2022-11-26T23:31:36.682Z,8.30
2022-11-26T23:34:05.330Z,8.30
2022-11-26T23:36:32.777Z,8.30
2022-11-26T23:39:03.682Z,8.20
2022-11-26T23:41:30.758Z,8.20
2022-11-26T23:43:57.667Z,8.20
2022-11-26T23:46:29.395Z,8.20
2022-11-26T23:48:56.726Z,8.10
2022-11-26T23:51:30.700Z,8.10
2022-11-26T23:53:57.975Z,8.00
2022-11-26T23:56:28.781Z,8.00
2022-11-26T23:59:02.155Z,7.90
